createdAt,value
2023-05-14T00:00:51.914Z,6.90
2023-05-14T00:03:53.872Z,6.70
2023-05-14T00:06:55.834Z,7.20
2023-05-14T00:09:58.428Z,6.85
2023-05-14T00:13:04.683Z,6.90
2023-05-14T00:16:06.587Z,5.73
2023-05-14T00:19:08.603Z,6.45
2023-05-14T00:22:10.724Z,6.40
2023-05-14T00:25:12.564Z,6.28
2023-05-14T00:28:14.395Z,6.20
2023-05-14T00:31:16.271Z,6.70
2023-05-14T00:34:18.161Z,5.95
2023-05-14T00:37:19.995Z,7.30
2023-05-14T00:40:23.897Z,6.15
2023-05-14T00:43:26.231Z,6.05
2023-05-14T00:46:28.159Z,6.43
2023-05-14T00:49:30.005Z,6.38
2023-05-14T00:52:32.276Z,6.25
2023-05-14T00:55:34.102Z,5.90
2023-05-14T00:58:39.074Z,5.63
2023-05-14T01:01:40.832Z,5.30
2023-05-14T01:04:42.650Z,5.93
2023-05-14T01:07:59.677Z,5.45
2023-05-14T01:11:14.114Z,5.90
2023-05-14T01:14:41.708Z,5.57
2023-05-14T01:17:48.961Z,5.63
2023-05-14T01:20:52.859Z,5.10
2023-05-14T01:23:54.691Z,5.07
2023-05-14T01:26:58.806Z,5.47
2023-05-14T01:30:29.118Z,5.55
2023-05-14T01:33:30.945Z,4.87
2023-05-14T01:36:33.329Z,5.55
2023-05-14T01:39:38.041Z,5.22
2023-05-14T01:42:39.816Z,5.22
2023-05-14T01:45:41.767Z,5.35
2023-05-14T01:48:43.602Z,5.43
2023-05-14T01:51:45.488Z,4.95
2023-05-14T01:54:51.012Z,5.47
2023-05-14T01:57:53.278Z,5.32
2023-05-14T02:00:55.044Z,6.00
2023-05-14T02:03:57.436Z,4.90
2023-05-14T02:06:59.391Z,5.50
2023-05-14T02:10:01.336Z,5.30
2023-05-14T02:13:04.033Z,5.70
2023-05-14T02:16:06.400Z,6.03
2023-05-14T02:19:08.542Z,5.57
2023-05-14T02:22:10.598Z,5.50
2023-05-14T02:25:12.658Z,6.18
2023-05-14T02:28:14.590Z,5.03
2023-05-14T02:31:19.255Z,5.65
2023-05-14T02:34:21.327Z,5.67
2023-05-14T02:37:23.349Z,5.90
2023-05-14T02:40:25.814Z,6.00
2023-05-14T02:43:27.877Z,5.80
2023-05-14T02:46:31.350Z,6.15
2023-05-14T02:49:33.268Z,5.10
2023-05-14T02:52:35.110Z,6.10
2023-05-14T02:55:36.983Z,5.68
2023-05-14T02:58:38.794Z,6.03
2023-05-14T03:01:40.735Z,5.18
2023-05-14T03:04:43.007Z,5.70
2023-05-14T03:07:44.815Z,5.57
2023-05-14T03:10:46.721Z,5.47
2023-05-14T03:13:48.629Z,5.43
2023-05-14T03:16:50.463Z,6.00
2023-05-14T03:19:52.458Z,5.57
2023-05-14T03:22:54.824Z,5.72
2023-05-14T03:25:56.906Z,5.72
2023-05-14T03:28:58.840Z,5.80
2023-05-14T03:32:00.782Z,5.82
2023-05-14T03:35:02.562Z,5.50
2023-05-14T03:38:04.449Z,5.85
2023-05-14T03:41:06.307Z,5.30
2023-05-14T03:44:08.104Z,5.50
2023-05-14T03:47:09.964Z,5.65
2023-05-14T03:50:11.778Z,5.70
2023-05-14T03:53:13.629Z,5.70
2023-05-14T03:56:15.518Z,6.15
2023-05-14T03:59:17.364Z,5.93
2023-05-14T04:02:19.223Z,6.10
2023-05-14T04:05:21.143Z,5.70
2023-05-14T04:08:22.991Z,5.45
2023-05-14T04:11:24.797Z,5.60
2023-05-14T04:14:26.690Z,5.43
2023-05-14T04:17:28.620Z,6.40
2023-05-14T04:20:30.497Z,6.90
2023-05-14T04:23:32.357Z,6.63
2023-05-14T04:26:34.169Z,5.50
2023-05-14T04:29:35.934Z,5.75
2023-05-14T04:32:38.313Z,7.03
2023-05-14T04:35:40.136Z,5.50
2023-05-14T04:38:42.291Z,6.47
2023-05-14T04:41:44.129Z,6.50
2023-05-14T04:44:46.341Z,5.80
2023-05-14T04:47:48.181Z,5.75
2023-05-14T04:50:50.082Z,5.63
2023-05-14T04:53:52.037Z,6.00
2023-05-14T04:56:55.994Z,6.40
2023-05-14T04:59:57.847Z,5.80
2023-05-14T05:02:59.717Z,6.13
2023-05-14T05:06:01.552Z,5.70
2023-05-14T05:09:03.360Z,5.85
2023-05-14T05:12:05.678Z,6.20
2023-05-14T05:15:08.258Z,5.72
2023-05-14T05:18:10.136Z,6.18
2023-05-14T05:21:11.961Z,5.57
2023-05-14T05:24:13.985Z,6.55
2023-05-14T05:27:16.012Z,6.18
2023-05-14T05:30:17.869Z,6.07
2023-05-14T05:33:19.980Z,6.20
2023-05-14T05:36:21.827Z,6.47
2023-05-14T05:39:23.629Z,5.95
2023-05-14T05:42:26.206Z,6.60
2023-05-14T05:45:28.111Z,6.22
2023-05-14T05:48:33.134Z,6.32
2023-05-14T05:51:34.952Z,6.33
2023-05-14T05:54:36.868Z,6.05
2023-05-14T05:57:38.713Z,6.43
2023-05-14T06:00:40.509Z,6.60
2023-05-14T06:03:46.981Z,6.47
2023-05-14T06:06:50.383Z,6.50
2023-05-14T06:09:52.183Z,6.82
2023-05-14T06:12:54.111Z,6.22
2023-05-14T06:15:56.002Z,7.07
2023-05-14T06:19:01.689Z,6.53
2023-05-14T06:22:03.787Z,6.87
2023-05-14T06:25:05.971Z,6.75
2023-05-14T06:28:07.871Z,6.53
2023-05-14T06:31:09.783Z,6.00
2023-05-14T06:34:11.708Z,6.43
2023-05-14T06:37:13.514Z,6.40
2023-05-14T06:40:16.007Z,6.90
2023-05-14T06:43:17.858Z,6.95
2023-05-14T06:46:19.652Z,6.57
2023-05-14T06:49:25.792Z,6.43
2023-05-14T06:52:27.663Z,6.70
2023-05-14T06:55:32.279Z,7.18
2023-05-14T06:58:34.099Z,7.28
2023-05-14T07:01:36.027Z,6.63
2023-05-14T07:04:41.878Z,7.30
2023-05-14T07:07:43.786Z,6.70
2023-05-14T07:10:45.602Z,6.63
2023-05-14T07:13:47.393Z,6.75
2023-05-14T07:16:49.265Z,6.80
2023-05-14T07:19:55.750Z,6.77
2023-05-14T07:22:57.616Z,6.80
2023-05-14T07:25:59.492Z,6.47
2023-05-14T07:29:01.297Z,6.00
2023-05-14T07:32:03.173Z,6.78
2023-05-14T07:35:10.841Z,6.77
2023-05-14T07:38:12.725Z,5.70
2023-05-14T07:41:14.616Z,5.60
2023-05-14T07:44:16.437Z,5.90
2023-05-14T07:47:18.341Z,5.68
2023-05-14T07:50:20.863Z,6.40
2023-05-14T07:53:23.610Z,6.40
2023-05-14T07:56:25.865Z,6.35
2023-05-14T07:59:27.703Z,6.43
2023-05-14T08:02:29.852Z,5.75
2023-05-14T08:05:33.138Z,6.33
2023-05-14T08:08:35.175Z,6.17
2023-05-14T08:11:37.018Z,5.97
2023-05-14T08:14:39.186Z,6.05
2023-05-14T08:17:41.095Z,6.75
2023-05-14T08:20:43.026Z,6.37
2023-05-14T08:23:45.068Z,6.47
2023-05-14T08:26:46.867Z,6.53
2023-05-14T08:29:48.675Z,5.13
2023-05-14T08:32:50.634Z,5.68
2023-05-14T08:35:56.367Z,5.93
2023-05-14T08:38:58.215Z,6.53
2023-05-14T08:42:00.026Z,6.10
2023-05-14T08:45:02.861Z,6.45
2023-05-14T08:48:09.249Z,6.85
2023-05-14T08:51:11.143Z,6.67
2023-05-14T08:54:15.522Z,6.57
2023-05-14T08:57:17.382Z,6.28
2023-05-14T09:00:19.402Z,6.93
2023-05-14T09:03:21.827Z,6.28
2023-05-14T09:06:23.760Z,6.93
2023-05-14T09:09:26.175Z,6.80
2023-05-14T09:12:28.191Z,6.97
2023-05-14T09:15:30.168Z,7.25
2023-05-14T09:18:32.300Z,6.68
2023-05-14T09:21:34.887Z,6.47
2023-05-14T09:24:39.698Z,6.90
2023-05-14T09:27:41.554Z,6.80
2023-05-14T09:30:44.257Z,7.40
2023-05-14T09:33:50.707Z,6.63
2023-05-14T09:37:02.849Z,7.63
2023-05-14T09:40:09.457Z,7.40
2023-05-14T09:43:11.287Z,6.97
2023-05-14T09:46:13.037Z,6.63
2023-05-14T09:49:17.624Z,6.93
2023-05-14T09:52:19.932Z,7.13
2023-05-14T09:55:21.874Z,7.20
2023-05-14T09:58:23.847Z,7.00
2023-05-14T10:01:25.832Z,7.10
2023-05-14T10:04:27.693Z,7.55
2023-05-14T10:07:42.966Z,7.43
2023-05-14T10:10:44.769Z,7.60
2023-05-14T10:14:18.835Z,7.47
2023-05-14T10:17:22.172Z,7.70
2023-05-14T10:20:24.310Z,6.63
2023-05-14T10:23:26.547Z,7.90
2023-05-14T10:26:28.481Z,6.87
2023-05-14T10:29:37.785Z,7.15
2023-05-14T10:32:42.002Z,7.43
2023-05-14T10:35:57.480Z,6.85
2023-05-14T10:38:59.503Z,7.60
2023-05-14T10:42:01.558Z,7.70
2023-05-14T10:45:07.706Z,7.25
2023-05-14T10:48:09.679Z,8.05
2023-05-14T10:51:12.344Z,7.63
2023-05-14T10:54:14.277Z,7.50
2023-05-14T10:57:16.173Z,7.37
2023-05-14T11:00:18.228Z,7.30
2023-05-14T11:03:20.091Z,7.97
2023-05-14T11:06:21.916Z,8.50
2023-05-14T11:09:23.711Z,7.63
2023-05-14T11:12:25.524Z,8.00
2023-05-14T11:15:28.534Z,8.18
2023-05-14T11:18:31.210Z,7.65
2023-05-14T11:21:33.464Z,7.80
2023-05-14T11:24:35.509Z,7.37
2023-05-14T11:27:38.677Z,7.93
2023-05-14T11:30:40.562Z,7.60
2023-05-14T11:33:42.376Z,8.05
2023-05-14T11:36:44.258Z,7.38
2023-05-14T11:39:50.141Z,8.00
2023-05-14T11:42:53.527Z,7.80
2023-05-14T11:45:55.666Z,7.55
2023-05-14T11:48:57.531Z,8.02
2023-05-14T11:52:03.583Z,7.80
2023-05-14T11:55:06.379Z,7.67
2023-05-14T11:58:08.220Z,7.80
2023-05-14T12:01:10.049Z,8.13
2023-05-14T12:04:11.953Z,8.00
2023-05-14T12:07:15.812Z,7.60
2023-05-14T12:10:17.763Z,6.93
2023-05-14T12:13:20.514Z,5.63
2023-05-14T12:16:22.567Z,5.80
2023-05-14T12:19:26.080Z,5.25
2023-05-14T12:22:28.048Z,5.60
2023-05-14T12:25:30.058Z,5.53
2023-05-14T12:28:32.127Z,5.37
2023-05-14T12:31:34.794Z,5.10
2023-05-14T12:34:37.775Z,4.72
2023-05-14T12:37:40.161Z,4.53
2023-05-14T12:40:42.059Z,4.60
2023-05-14T12:43:44.126Z,4.47
2023-05-14T12:46:46.185Z,5.13
2023-05-14T12:49:48.102Z,5.18
2023-05-14T12:52:50.001Z,4.78
2023-05-14T12:55:51.948Z,4.10
2023-05-14T12:58:57.269Z,4.27
2023-05-14T13:01:59.146Z,3.78
2023-05-14T13:05:03.103Z,4.35
2023-05-14T13:08:05.034Z,4.20
2023-05-14T13:11:06.862Z,5.23
2023-05-14T13:14:08.717Z,5.20
2023-05-14T13:17:10.845Z,4.07
2023-05-14T13:20:12.681Z,4.50
2023-05-14T13:23:15.009Z,4.40
2023-05-14T13:26:19.999Z,4.70
2023-05-14T13:29:21.808Z,4.80
2023-05-14T13:32:23.724Z,4.78
2023-05-14T13:35:26.030Z,4.85
2023-05-14T13:38:28.138Z,4.40
2023-05-14T13:41:30.268Z,4.17
2023-05-14T13:44:32.203Z,4.20
2023-05-14T13:47:34.125Z,4.13
2023-05-14T13:50:35.958Z,4.55
2023-05-14T13:53:39.160Z,4.05
2023-05-14T13:56:40.988Z,4.90
2023-05-14T13:59:42.835Z,4.93
2023-05-14T14:02:44.689Z,5.15
2023-05-14T14:05:46.553Z,5.28
2023-05-14T14:08:48.452Z,5.28
2023-05-14T14:11:54.121Z,5.80
2023-05-14T14:14:56.029Z,5.50
2023-05-14T14:17:57.960Z,4.85
2023-05-14T14:20:59.735Z,5.50
2023-05-14T14:24:02.441Z,5.47
2023-05-14T14:27:08.108Z,5.70
2023-05-14T14:30:16.945Z,5.43
2023-05-14T14:33:18.792Z,4.60
2023-05-14T14:36:20.782Z,5.40
2023-05-14T14:39:25.425Z,4.72
2023-05-14T14:42:27.348Z,5.00
2023-05-14T14:45:29.290Z,5.00
2023-05-14T14:48:34.257Z,5.15
2023-05-14T14:51:36.298Z,5.00
2023-05-14T14:54:38.224Z,4.95
2023-05-14T14:57:40.136Z,4.90
2023-05-14T15:00:42.001Z,5.37
2023-05-14T15:03:45.892Z,5.30
2023-05-14T15:06:47.819Z,5.32
2023-05-14T15:09:49.670Z,4.93
2023-05-14T15:12:54.798Z,5.33
2023-05-14T15:15:56.642Z,5.60
2023-05-14T15:18:58.623Z,5.78
2023-05-14T15:22:00.533Z,5.55
2023-05-14T15:25:02.312Z,5.68
2023-05-14T15:28:08.874Z,5.43
2023-05-14T15:31:10.867Z,4.97
2023-05-14T15:34:12.630Z,4.70
2023-05-14T15:37:14.432Z,5.68
2023-05-14T15:40:16.361Z,5.28
2023-05-14T15:43:18.172Z,4.60
2023-05-14T15:46:21.555Z,5.07
2023-05-14T15:49:23.583Z,4.80
2023-05-14T15:52:26.028Z,5.05
2023-05-14T15:55:27.891Z,5.25
2023-05-14T15:58:34.231Z,5.63
2023-05-14T16:01:36.204Z,5.10
2023-05-14T16:04:38.061Z,4.97
2023-05-14T16:07:39.949Z,5.72
2023-05-14T16:10:41.838Z,5.90
2023-05-14T16:13:47.419Z,5.70
2023-05-14T16:16:49.830Z,5.40
2023-05-14T16:19:53.459Z,5.50
2023-05-14T16:22:57.212Z,5.22
2023-05-14T16:25:59.052Z,5.30
2023-05-14T16:29:00.858Z,5.83
2023-05-14T16:32:02.782Z,5.20
2023-05-14T16:35:04.998Z,5.60
2023-05-14T16:38:06.799Z,6.05
2023-05-14T16:41:10.082Z,5.82
2023-05-14T16:44:16.372Z,6.10
2023-05-14T16:47:18.164Z,5.77
2023-05-14T16:50:20.246Z,5.90
2023-05-14T16:53:22.047Z,5.75
2023-05-14T16:56:24.128Z,5.80
2023-05-14T16:59:30.441Z,5.83
2023-05-14T17:02:33.361Z,5.77
2023-05-14T17:05:35.357Z,5.95
2023-05-14T17:08:37.294Z,5.78
2023-05-14T17:11:39.156Z,5.60
2023-05-14T17:14:45.433Z,6.07
2023-05-14T17:17:47.343Z,5.97
2023-05-14T17:20:49.320Z,5.93
2023-05-14T17:23:51.221Z,5.78
2023-05-14T17:26:53.118Z,5.80
2023-05-14T17:29:54.911Z,6.57
2023-05-14T17:32:56.931Z,6.23
2023-05-14T17:35:58.869Z,6.55
2023-05-14T17:39:00.654Z,5.85
2023-05-14T17:42:03.807Z,5.82
2023-05-14T17:45:09.038Z,7.27
2023-05-14T17:48:10.969Z,6.37
2023-05-14T17:51:12.828Z,7.07
2023-05-14T17:54:15.170Z,6.57
2023-05-14T17:57:17.235Z,6.50
2023-05-14T18:00:22.178Z,6.80
2023-05-14T18:03:24.038Z,7.00
2023-05-14T18:06:25.867Z,7.13
2023-05-14T18:09:27.742Z,6.68
2023-05-14T18:12:29.585Z,7.07
2023-05-14T18:15:35.375Z,6.17
2023-05-14T18:18:37.215Z,6.43
2023-05-14T18:21:39.015Z,6.18
2023-05-14T18:24:40.896Z,5.97
2023-05-14T18:27:45.776Z,5.78
2023-05-14T18:30:49.317Z,6.10
2023-05-14T18:33:51.203Z,6.13
2023-05-14T18:36:53.126Z,6.38
2023-05-14T18:39:55.034Z,6.50
2023-05-14T18:42:57.001Z,5.57
2023-05-14T18:46:01.969Z,6.27
2023-05-14T18:49:03.763Z,6.03
2023-05-14T18:52:06.113Z,6.63
2023-05-14T18:55:08.416Z,7.25
2023-05-14T18:58:10.395Z,6.18
2023-05-14T19:01:15.101Z,6.90
2023-05-14T19:04:17.109Z,6.10
2023-05-14T19:07:19.023Z,6.65
2023-05-14T19:10:21.040Z,6.60
2023-05-14T19:13:23.946Z,6.47
2023-05-14T19:16:26.502Z,6.63
2023-05-14T19:19:28.415Z,6.43
2023-05-14T19:22:30.191Z,6.43
2023-05-14T19:25:32.019Z,6.45
2023-05-14T19:28:33.988Z,6.30
2023-05-14T19:31:39.688Z,5.90
2023-05-14T19:34:41.639Z,6.27
2023-05-14T19:37:43.470Z,6.13
2023-05-14T19:40:45.305Z,5.95
2023-05-14T19:43:47.070Z,6.28
2023-05-14T19:46:48.969Z,6.40
2023-05-14T19:49:51.650Z,6.10
2023-05-14T19:52:53.394Z,6.22
2023-05-14T19:55:56.522Z,6.05
2023-05-14T19:58:58.389Z,6.25
2023-05-14T20:02:00.265Z,6.20
2023-05-14T20:05:02.152Z,6.30
2023-05-14T20:08:06.781Z,6.55
2023-05-14T20:11:08.707Z,6.43
2023-05-14T20:14:10.513Z,6.45
2023-05-14T20:17:12.542Z,6.63
2023-05-14T20:20:14.545Z,6.13
2023-05-14T20:23:16.389Z,5.85
2023-05-14T20:26:18.231Z,6.28
2023-05-14T20:29:20.129Z,5.53
2023-05-14T20:32:25.210Z,6.80
2023-05-14T20:35:27.425Z,7.40
2023-05-14T20:38:31.325Z,6.80
2023-05-14T20:41:33.250Z,6.80
2023-05-14T20:44:35.133Z,6.47
2023-05-14T20:47:37.134Z,6.77
2023-05-14T20:50:38.991Z,6.77
2023-05-14T20:53:40.871Z,6.65
2023-05-14T20:56:42.687Z,6.45
2023-05-14T20:59:45.309Z,5.57
2023-05-14T21:02:47.379Z,6.23
2023-05-14T21:05:49.343Z,6.00
2023-05-14T21:08:51.165Z,6.38
2023-05-14T21:11:53.619Z,6.60
2023-05-14T21:14:55.418Z,6.88
2023-05-14T21:17:57.486Z,6.53
2023-05-14T21:20:59.509Z,6.47
2023-05-14T21:24:01.320Z,6.55
2023-05-14T21:27:03.216Z,7.00
2023-05-14T21:30:05.608Z,7.07
2023-05-14T21:33:07.457Z,7.20
2023-05-14T21:36:09.461Z,6.97
2023-05-14T21:39:11.286Z,6.75
2023-05-14T21:42:13.134Z,6.18
2023-05-14T21:45:15.028Z,7.05
2023-05-14T21:48:16.891Z,6.97
2023-05-14T21:51:18.774Z,6.77
2023-05-14T21:54:21.090Z,6.47
2023-05-14T21:57:23.088Z,6.97
2023-05-14T22:00:25.353Z,6.85
2023-05-14T22:03:27.273Z,7.30
2023-05-14T22:06:29.124Z,6.90
2023-05-14T22:09:30.952Z,6.60
2023-05-14T22:12:32.724Z,6.75
2023-05-14T22:15:34.747Z,6.60
2023-05-14T22:18:36.935Z,7.07
2023-05-14T22:21:38.822Z,6.63
2023-05-14T22:24:40.625Z,7.00
2023-05-14T22:27:42.533Z,7.13
2023-05-14T22:30:44.366Z,7.50
2023-05-14T22:33:46.276Z,7.40
2023-05-14T22:36:48.296Z,7.07
2023-05-14T22:39:50.293Z,7.38
2023-05-14T22:42:52.098Z,6.93
2023-05-14T22:45:53.847Z,6.35
2023-05-14T22:48:55.791Z,6.37
2023-05-14T22:51:57.780Z,6.83
2023-05-14T22:54:59.587Z,6.60
2023-05-14T22:58:01.467Z,7.18
2023-05-14T23:01:03.555Z,7.25
2023-05-14T23:04:05.468Z,7.40
2023-05-14T23:07:07.439Z,6.90
2023-05-14T23:10:09.742Z,6.70
2023-05-14T23:13:11.598Z,6.47
2023-05-14T23:16:13.414Z,7.15
2023-05-14T23:19:15.470Z,6.77
2023-05-14T23:22:17.352Z,7.17
2023-05-14T23:25:19.248Z,7.35
2023-05-14T23:28:20.998Z,6.93
2023-05-14T23:31:23.042Z,7.05
2023-05-14T23:34:24.942Z,7.73
2023-05-14T23:37:26.821Z,7.37
2023-05-14T23:40:28.684Z,7.93
2023-05-14T23:43:30.690Z,7.53
2023-05-14T23:46:32.608Z,6.72
2023-05-14T23:49:35.594Z,7.23
2023-05-14T23:52:38.046Z,7.60
2023-05-14T23:55:39.949Z,8.10
2023-05-14T23:58:41.960Z,8.02
